createdAt,value
2019-01-22T00:00:06.075Z,0
2019-01-22T00:01:06.105Z,0
2019-01-22T00:02:06.590Z,0
2019-01-22T00:03:07.586Z,0
2019-01-22T00:04:08.030Z,0
2019-01-22T00:05:08.911Z,0
2019-01-22T00:06:10.377Z,0
2019-01-22T00:07:10.383Z,0
2019-01-22T00:08:10.583Z,0
2019-01-22T00:09:11.322Z,0
2019-01-22T00:10:11.800Z,0
2019-01-22T00:11:12.811Z,0
2019-01-22T00:12:13.572Z,0
2019-01-22T00:13:14.020Z,0
2019-01-22T00:14:14.744Z,0
2019-01-22T00:15:17.289Z,0
2019-01-22T00:16:15.752Z,0
2019-01-22T00:17:16.465Z,0
2019-01-22T00:18:17.232Z,0
2019-01-22T00:19:17.383Z,0
2019-01-22T00:20:17.813Z,0
2019-01-22T00:21:19.272Z,0
2019-01-22T00:22:20.440Z,0
2019-01-22T00:23:21.210Z,0
2019-01-22T00:24:22.898Z,0
2019-01-22T00:25:23.100Z,0
2019-01-22T00:26:23.282Z,0
2019-01-22T00:27:24.731Z,0
2019-01-22T00:28:26.593Z,0
2019-01-22T00:29:26.613Z,0
2019-01-22T00:30:26.920Z,0
2019-01-22T00:31:27.360Z,0
2019-01-22T00:32:28.525Z,0
2019-01-22T00:33:30.569Z,0
2019-01-22T00:34:31.729Z,0
2019-01-22T00:35:32.542Z,0
2019-01-22T00:36:32.994Z,0
2019-01-22T00:37:33.711Z,0
2019-01-22T00:38:34.135Z,0
2019-01-22T00:39:35.139Z,0
2019-01-22T00:40:35.880Z,0
2019-01-22T00:41:36.654Z,0
2019-01-22T00:42:37.233Z,0
2019-01-22T00:43:38.824Z,0
2019-01-22T00:44:39.144Z,0
2019-01-22T00:45:39.623Z,0
2019-01-22T00:46:40.049Z,0
2019-01-22T00:47:41.786Z,0
2019-01-22T00:48:42.241Z,0
2019-01-22T00:49:42.420Z,0
2019-01-22T00:50:43.889Z,0
2019-01-22T00:51:44.353Z,0
2019-01-22T00:52:48.070Z,0
2019-01-22T00:53:46.074Z,0
2019-01-22T00:54:46.788Z,0
2019-01-22T00:55:47.755Z,0
2019-01-22T00:56:47.945Z,0
2019-01-22T00:57:48.395Z,0
2019-01-22T00:58:48.618Z,0
2019-01-22T00:59:49.359Z,0
2019-01-22T01:00:49.801Z,0
2019-01-22T01:01:52.274Z,0
2019-01-22T01:02:51.179Z,0
2019-01-22T01:03:52.181Z,0
2019-01-22T01:04:52.623Z,0
2019-01-22T01:05:54.076Z,0
2019-01-22T01:06:54.249Z,0
2019-01-22T01:07:55.683Z,0
2019-01-22T01:08:56.414Z,0
2019-01-22T01:09:57.468Z,0
2019-01-22T01:11:00.344Z,0
2019-01-22T01:11:58.955Z,0
2019-01-22T01:12:59.411Z,0
2019-01-22T01:14:00.413Z,0
2019-01-22T01:15:00.869Z,0
2019-01-22T01:16:01.106Z,0
2019-01-22T01:17:02.836Z,0
2019-01-22T01:18:03.260Z,0
2019-01-22T01:19:04.716Z,0
2019-01-22T01:20:07.108Z,0
2019-01-22T01:21:06.485Z,0
2019-01-22T01:22:06.642Z,0
2019-01-22T01:23:07.796Z,0
2019-01-22T01:24:09.539Z,0
2019-01-22T01:25:10.142Z,0
2019-01-22T01:26:09.772Z,0
2019-01-22T01:27:11.373Z,0
2019-01-22T01:28:11.805Z,0
2019-01-22T01:29:13.997Z,0
2019-01-22T01:30:12.883Z,0
2019-01-22T01:31:13.626Z,0
2019-01-22T01:32:14.102Z,0
2019-01-22T01:33:14.594Z,0
2019-01-22T01:34:15.047Z,0
2019-01-22T01:35:15.507Z,0
2019-01-22T01:36:15.868Z,0
2019-01-22T01:37:17.739Z,0
2019-01-22T01:38:16.958Z,0
2019-01-22T01:39:18.396Z,0
2019-01-22T01:40:19.146Z,0
2019-01-22T01:41:20.222Z,0
2019-01-22T01:42:20.988Z,0
2019-01-22T01:43:21.421Z,0
2019-01-22T01:44:21.869Z,0
2019-01-22T01:45:22.322Z,0
2019-01-22T01:46:25.442Z,0
2019-01-22T01:47:24.024Z,0
2019-01-22T01:48:24.487Z,0
2019-01-22T01:49:25.232Z,0
2019-01-22T01:50:25.700Z,0
2019-01-22T01:51:26.434Z,0
2019-01-22T01:52:27.448Z,0
2019-01-22T01:53:28.203Z,0
2019-01-22T01:54:28.638Z,0
2019-01-22T01:55:31.556Z,0
2019-01-22T01:56:30.363Z,0
2019-01-22T01:57:30.376Z,0
2019-01-22T01:58:31.102Z,0
2019-01-22T01:59:31.884Z,0
2019-01-22T02:00:32.063Z,0
2019-01-22T02:01:32.780Z,0
2019-01-22T02:02:33.221Z,0
2019-01-22T02:03:33.989Z,0
2019-01-22T02:04:34.934Z,0
2019-01-22T02:05:35.608Z,0
2019-01-22T02:06:36.239Z,0
2019-01-22T02:07:36.408Z,0
2019-01-22T02:08:37.138Z,0
2019-01-22T02:09:38.147Z,0
2019-01-22T02:10:39.132Z,0
2019-01-22T02:11:38.880Z,0
2019-01-22T02:12:40.759Z,0
2019-01-22T02:13:40.220Z,0
2019-01-22T02:14:41.508Z,0
2019-01-22T02:15:41.515Z,0
2019-01-22T02:16:42.160Z,0
2019-01-22T02:17:42.907Z,0
2019-01-22T02:18:44.247Z,0
2019-01-22T02:19:43.971Z,0
2019-01-22T02:20:44.694Z,0
2019-01-22T02:21:46.174Z,0
2019-01-22T02:22:46.166Z,0
2019-01-22T02:23:46.613Z,0
2019-01-22T02:24:47.615Z,0
2019-01-22T02:25:48.619Z,0
2019-01-22T02:26:49.062Z,0
2019-01-22T02:27:49.512Z,0
2019-01-22T02:28:51.255Z,0
2019-01-22T02:29:51.421Z,0
2019-01-22T02:30:53.158Z,0
2019-01-22T02:31:56.142Z,0
2019-01-22T02:32:55.289Z,0
2019-01-22T02:33:56.008Z,0
2019-01-22T02:34:56.239Z,0
2019-01-22T02:35:57.276Z,0
2019-01-22T02:36:57.944Z,0
2019-01-22T02:37:57.678Z,0
2019-01-22T02:38:59.538Z,0
2019-01-22T02:39:59.833Z,0
2019-01-22T02:41:02.771Z,0
2019-01-22T02:42:01.483Z,0
2019-01-22T02:43:02.504Z,0
2019-01-22T02:44:03.235Z,0
2019-01-22T02:45:04.519Z,0
2019-01-22T02:46:05.034Z,0
2019-01-22T02:47:06.219Z,0
2019-01-22T02:48:07.521Z,0
2019-01-22T02:49:08.238Z,0
2019-01-22T02:50:10.714Z,0
2019-01-22T02:51:09.719Z,0
2019-01-22T02:52:10.749Z,0
2019-01-22T02:53:11.238Z,0
2019-01-22T02:54:12.848Z,0
2019-01-22T02:55:12.866Z,0
2019-01-22T02:56:13.300Z,0
2019-01-22T02:57:13.941Z,0
2019-01-22T02:58:14.403Z,0
2019-01-22T02:59:16.387Z,0
2019-01-22T03:00:15.141Z,0
2019-01-22T03:01:15.883Z,0
2019-01-22T03:02:16.342Z,0
2019-01-22T03:03:17.376Z,0
2019-01-22T03:04:18.810Z,0
2019-01-22T03:05:20.088Z,0
2019-01-22T03:06:20.122Z,0
2019-01-22T03:07:20.581Z,0
2019-01-22T03:08:21.962Z,0
2019-01-22T03:09:23.039Z,0
2019-01-22T03:10:22.898Z,0
2019-01-22T03:11:23.082Z,0
2019-01-22T03:12:24.094Z,0
2019-01-22T03:13:24.555Z,0
2019-01-22T03:14:25.023Z,0
2019-01-22T03:15:25.820Z,0
2019-01-22T03:16:26.306Z,0
2019-01-22T03:17:27.304Z,0
2019-01-22T03:18:29.335Z,0
2019-01-22T03:19:28.342Z,0
2019-01-22T03:20:28.797Z,0
2019-01-22T03:21:29.989Z,0
2019-01-22T03:22:30.428Z,0
2019-01-22T03:23:30.858Z,0
2019-01-22T03:24:31.585Z,0
2019-01-22T03:25:32.342Z,0
2019-01-22T03:26:32.846Z,0
2019-01-22T03:27:35.962Z,0
2019-01-22T03:28:35.176Z,0
2019-01-22T03:29:35.898Z,0
2019-01-22T03:30:37.216Z,0
2019-01-22T03:31:39.149Z,0
2019-01-22T03:32:38.841Z,0
2019-01-22T03:33:38.364Z,0
2019-01-22T03:34:39.372Z,0
2019-01-22T03:35:39.788Z,0
2019-01-22T03:36:42.568Z,0
2019-01-22T03:37:41.088Z,0
2019-01-22T03:38:42.062Z,0
2019-01-22T03:39:42.788Z,0
2019-01-22T03:40:43.202Z,0
2019-01-22T03:41:44.176Z,0
2019-01-22T03:42:45.424Z,0
2019-01-22T03:43:45.672Z,0
2019-01-22T03:44:45.804Z,0
2019-01-22T03:45:47.592Z,0
2019-01-22T03:46:47.330Z,0
2019-01-22T03:47:47.733Z,0
2019-01-22T03:48:48.720Z,0
2019-01-22T03:49:50.242Z,0
2019-01-22T03:50:49.375Z,0
2019-01-22T03:51:50.950Z,0
2019-01-22T03:52:51.233Z,0
2019-01-22T03:53:56.175Z,0
2019-01-22T03:54:03.447Z,0
2019-01-22T03:55:03.869Z,0
2019-01-22T03:56:05.006Z,0
2019-01-22T03:57:07.100Z,0
2019-01-22T03:58:09.122Z,0
2019-01-22T03:59:08.092Z,0
2019-01-22T04:00:09.064Z,0
2019-01-22T04:01:09.774Z,0
2019-01-22T04:02:10.199Z,0
2019-01-22T04:03:11.724Z,0
2019-01-22T04:04:12.409Z,0
2019-01-22T04:05:12.796Z,0
2019-01-22T04:06:13.254Z,0
2019-01-22T04:07:16.911Z,0
2019-01-22T04:08:15.083Z,0
2019-01-22T04:09:16.092Z,0
2019-01-22T04:10:17.064Z,0
2019-01-22T04:11:18.031Z,0
2019-01-22T04:12:19.000Z,0
2019-01-22T04:13:19.131Z,0
2019-01-22T04:14:20.110Z,0
2019-01-22T04:15:21.067Z,0
2019-01-22T04:16:23.074Z,0
2019-01-22T04:17:22.339Z,0
2019-01-22T04:18:21.814Z,0
2019-01-22T04:19:22.509Z,0
2019-01-22T04:20:23.760Z,0
2019-01-22T04:21:24.485Z,0
2019-01-22T04:22:25.181Z,0
2019-01-22T04:23:26.147Z,0
2019-01-22T04:24:26.868Z,0
2019-01-22T04:25:29.082Z,0
2019-01-22T04:26:28.771Z,0
2019-01-22T04:27:30.015Z,0
2019-01-22T04:28:30.256Z,0
2019-01-22T04:29:30.690Z,0
2019-01-22T04:30:31.658Z,0
2019-01-22T04:31:32.372Z,0
2019-01-22T04:32:32.511Z,0
2019-01-22T04:33:34.214Z,0
2019-01-22T04:34:34.956Z,0
2019-01-22T04:35:38.135Z,0
2019-01-22T04:36:37.488Z,0
2019-01-22T04:37:38.488Z,0
2019-01-22T04:38:39.193Z,0
2019-01-22T04:39:39.634Z,0
2019-01-22T04:40:39.774Z,0
2019-01-22T04:41:42.315Z,0
2019-01-22T04:42:42.357Z,0
2019-01-22T04:43:43.875Z,0
2019-01-22T04:44:44.580Z,0
2019-01-22T04:45:45.620Z,0
2019-01-22T04:46:46.096Z,0
2019-01-22T04:47:46.832Z,0
2019-01-22T04:48:46.967Z,0
2019-01-22T04:49:48.699Z,0
2019-01-22T04:50:49.122Z,0
2019-01-22T04:51:49.819Z,0
2019-01-22T04:52:50.797Z,0
2019-01-22T04:53:50.968Z,0
2019-01-22T04:54:53.554Z,0
2019-01-22T04:55:52.753Z,0
2019-01-22T04:56:54.560Z,0
2019-01-22T04:57:54.813Z,0
2019-01-22T04:58:55.234Z,0
2019-01-22T04:59:56.215Z,0
2019-01-22T05:00:57.750Z,0
2019-01-22T05:01:57.716Z,0
2019-01-22T05:02:57.855Z,0
2019-01-22T05:04:00.112Z,0
2019-01-22T05:05:02.088Z,0
2019-01-22T05:06:00.050Z,0
2019-01-22T05:07:00.200Z,0
2019-01-22T05:08:01.183Z,0
2019-01-22T05:09:01.985Z,0
2019-01-22T05:10:02.782Z,0
2019-01-22T05:11:03.049Z,0
2019-01-22T05:12:03.190Z,0
2019-01-22T05:13:04.628Z,0
2019-01-22T05:14:07.482Z,0
2019-01-22T05:15:06.282Z,0
2019-01-22T05:16:08.231Z,0
2019-01-22T05:17:08.198Z,0
2019-01-22T05:18:08.610Z,0
2019-01-22T05:19:09.578Z,0
2019-01-22T05:20:10.818Z,0
2019-01-22T05:21:11.522Z,0
2019-01-22T05:22:12.219Z,0
2019-01-22T05:23:14.610Z,0
2019-01-22T05:24:25.336Z,0
2019-01-22T05:25:27.818Z,0
2019-01-22T05:26:27.507Z,0
2019-01-22T05:27:27.939Z,0
2019-01-22T05:28:28.079Z,0
2019-01-22T05:29:30.240Z,0
2019-01-22T05:30:30.537Z,0
2019-01-22T05:31:30.784Z,0
2019-01-22T05:32:32.340Z,0
2019-01-22T05:33:32.045Z,0
2019-01-22T05:34:33.122Z,0
2019-01-22T05:35:35.158Z,0
2019-01-22T05:36:34.573Z,0
2019-01-22T05:37:34.990Z,0
2019-01-22T05:38:36.516Z,0
2019-01-22T05:39:36.770Z,0
2019-01-22T05:40:38.016Z,0
2019-01-22T05:41:37.992Z,0
2019-01-22T05:42:38.688Z,0
2019-01-22T05:43:39.721Z,0
2019-01-22T05:44:42.455Z,0
2019-01-22T05:45:41.535Z,0
2019-01-22T05:46:42.239Z,0
2019-01-22T05:47:43.205Z,0
2019-01-22T05:48:44.477Z,0
2019-01-22T05:49:44.740Z,0
2019-01-22T05:50:45.194Z,0
2019-01-22T05:51:46.166Z,0
2019-01-22T05:52:46.301Z,0
2019-01-22T05:53:47.048Z,0
2019-01-22T05:54:48.307Z,0
2019-01-22T05:55:48.195Z,0
2019-01-22T05:56:48.348Z,0
2019-01-22T05:57:48.790Z,0
2019-01-22T05:58:49.190Z,0
2019-01-22T05:59:51.467Z,0
2019-01-22T06:00:52.195Z,0
2019-01-22T06:01:52.883Z,0
2019-01-22T06:02:53.298Z,0
2019-01-22T06:03:54.261Z,0
2019-01-22T06:04:54.712Z,0
2019-01-22T06:05:55.823Z,0
2019-01-22T06:06:56.504Z,0
2019-01-22T06:07:57.630Z,0
2019-01-22T06:08:59.312Z,0
2019-01-22T06:09:59.442Z,0
2019-01-22T06:11:01.126Z,0
2019-01-22T06:12:01.084Z,0
2019-01-22T06:13:01.209Z,0
2019-01-22T06:14:02.889Z,0
2019-01-22T06:15:03.852Z,0
2019-01-22T06:16:04.945Z,0
2019-01-22T06:17:05.192Z,0
2019-01-22T06:18:05.604Z,0
2019-01-22T06:19:06.287Z,0
2019-01-22T06:20:06.691Z,0
2019-01-22T06:21:06.828Z,0
2019-01-22T06:22:08.241Z,0
2019-01-22T06:23:10.204Z,0
2019-01-22T06:24:10.451Z,0
2019-01-22T06:25:12.587Z,0
2019-01-22T06:25:56.734Z,0
2019-01-22T06:26:58.101Z,0
2019-01-22T06:27:58.782Z,0
2019-01-22T06:28:59.190Z,0
2019-01-22T06:30:00.931Z,0
2019-01-22T06:31:01.481Z,0
2019-01-22T06:32:02.163Z,0
2019-01-22T06:33:03.687Z,0
2019-01-22T06:34:03.650Z,0
2019-01-22T06:35:04.897Z,0
2019-01-22T06:36:04.864Z,0
2019-01-22T06:37:05.677Z,0
2019-01-22T06:38:06.360Z,0
2019-01-22T06:39:07.045Z,0
2019-01-22T06:40:07.739Z,0
2019-01-22T06:41:08.703Z,0
2019-01-22T06:42:09.213Z,0
2019-01-22T06:43:09.636Z,0
2019-01-22T06:44:11.043Z,0
2019-01-22T06:45:12.003Z,0
2019-01-22T06:46:12.408Z,0
2019-01-22T06:47:13.785Z,0
2019-01-22T06:48:14.507Z,0
2019-01-22T06:49:15.753Z,0
2019-01-22T06:50:15.988Z,0
2019-01-22T06:51:16.395Z,0
2019-01-22T06:52:17.087Z,0
2019-01-22T06:53:17.774Z,0
2019-01-22T06:54:18.186Z,0
2019-01-22T06:55:18.869Z,0
2019-01-22T06:56:19.555Z,0
2019-01-22T06:57:20.399Z,5.63
2019-01-22T06:58:22.081Z,5.63
2019-01-22T06:59:22.597Z,5.63
2019-01-22T07:00:22.724Z,5.63
2019-01-22T07:01:24.145Z,5.63
2019-01-22T07:02:24.553Z,5.63
2019-01-22T07:03:25.517Z,5.63
2019-01-22T07:04:25.954Z,5.63
2019-01-22T07:05:26.365Z,5.63
2019-01-22T07:06:28.083Z,5.63
2019-01-22T07:07:27.919Z,5.63
2019-01-22T07:08:29.882Z,11.25
2019-01-22T07:09:30.291Z,11.25
2019-01-22T07:10:31.706Z,11.25
2019-01-22T07:11:32.878Z,11.25
2019-01-22T07:12:51.064Z,11.25
2019-01-22T07:13:05.306Z,11.25
2019-01-22T07:13:17.735Z,11.25
2019-01-22T07:13:29.479Z,11.25
2019-01-22T07:13:41.926Z,11.25
2019-01-22T07:14:38.396Z,11.25
2019-01-22T07:15:38.836Z,11.25
2019-01-22T07:16:40.245Z,11.25
2019-01-22T07:17:40.647Z,11.25
2019-01-22T07:18:40.809Z,16.88
2019-01-22T07:19:42.714Z,16.88
2019-01-22T07:20:42.442Z,16.88
2019-01-22T07:21:42.850Z,16.88
2019-01-22T07:22:57.376Z,16.88
2019-01-22T07:23:56.121Z,16.88
2019-01-22T07:24:56.926Z,22.5
2019-01-22T07:25:57.663Z,22.5
2019-01-22T07:26:58.347Z,22.5
2019-01-22T07:27:58.753Z,22.5
2019-01-22T07:28:59.236Z,22.5
2019-01-22T07:29:59.663Z,22.5
2019-01-22T07:31:00.074Z,28.13
2019-01-22T07:32:01.319Z,28.13
2019-01-22T07:33:01.725Z,28.13
2019-01-22T07:34:02.546Z,28.13
2019-01-22T07:35:06.289Z,28.13
2019-01-22T07:36:05.863Z,28.13
2019-01-22T07:37:06.383Z,33.75
2019-01-22T07:38:08.362Z,33.75
2019-01-22T07:39:08.348Z,33.75
2019-01-22T07:40:09.033Z,33.75
2019-01-22T07:41:11.389Z,33.75
2019-01-22T07:42:13.482Z,33.75
2019-01-22T07:43:11.723Z,33.75
2019-01-22T07:44:12.814Z,39.38
2019-01-22T07:45:13.231Z,39.38
2019-01-22T07:46:13.949Z,39.38
2019-01-22T07:47:14.078Z,39.38
2019-01-22T07:48:15.207Z,39.38
2019-01-22T07:49:28.029Z,39.38
2019-01-22T07:50:28.702Z,39.38
2019-01-22T07:51:28.582Z,39.38
2019-01-22T07:52:34.019Z,39.38
2019-01-22T07:52:47.843Z,39.38
2019-01-22T07:52:58.662Z,45
2019-01-22T07:53:57.032Z,45
2019-01-22T07:55:04.989Z,45
2019-01-22T07:55:13.829Z,45
2019-01-22T07:56:10.496Z,45
2019-01-22T07:57:11.185Z,45
2019-01-22T07:58:11.614Z,45
2019-01-22T07:59:15.682Z,50.63
2019-01-22T08:00:14.825Z,50.63
2019-01-22T08:01:15.959Z,50.63
2019-01-22T08:02:17.678Z,50.63
2019-01-22T08:03:18.363Z,50.63
2019-01-22T08:04:18.496Z,50.63
2019-01-22T08:05:19.914Z,50.63
2019-01-22T08:06:20.737Z,56.25
2019-01-22T08:07:20.867Z,56.25
2019-01-22T08:08:21.554Z,61.88
2019-01-22T08:09:39.111Z,61.88
2019-01-22T08:10:35.562Z,61.88
2019-01-22T08:11:35.693Z,67.5
2019-01-22T08:12:39.396Z,73.13
2019-01-22T08:13:39.479Z,73.13
2019-01-22T08:14:41.174Z,78.75
2019-01-22T08:15:41.860Z,78.75
2019-01-22T08:16:41.993Z,84.38
2019-01-22T08:17:43.401Z,90
2019-01-22T08:18:49.303Z,95.63
2019-01-22T08:18:56.653Z,95.63
2019-01-22T08:19:57.492Z,101.25
2019-01-22T08:20:57.917Z,106.88
2019-01-22T08:21:59.096Z,112.5
2019-01-22T08:22:59.264Z,118.13
2019-01-22T08:24:00.954Z,123.75
2019-01-22T08:25:12.479Z,135
2019-01-22T08:26:12.742Z,135
2019-01-22T08:27:44.244Z,140.63
2019-01-22T08:27:58.284Z,140.63
2019-01-22T08:28:08.670Z,140.63
2019-01-22T08:29:14.241Z,146.25
2019-01-22T08:29:21.768Z,146.25
2019-01-22T08:30:21.941Z,146.25
2019-01-22T08:31:21.354Z,146.25
2019-01-22T08:32:21.767Z,146.25
2019-01-22T08:33:23.017Z,146.25
2019-01-22T08:34:25.798Z,146.25
2019-01-22T08:35:25.393Z,146.25
2019-01-22T08:36:25.801Z,146.25
2019-01-22T08:37:28.486Z,151.88
2019-01-22T08:38:30.963Z,157.5
2019-01-22T08:39:28.545Z,157.5
2019-01-22T08:40:29.187Z,163.13
2019-01-22T08:41:30.884Z,174.38
2019-01-22T08:42:31.015Z,174.38
2019-01-22T08:43:32.733Z,180
2019-01-22T08:44:33.146Z,180
2019-01-22T08:45:39.638Z,185.63
2019-01-22T08:45:47.673Z,185.63
2019-01-22T08:46:47.867Z,180
2019-01-22T08:47:51.891Z,180
2019-01-22T08:48:50.527Z,180
2019-01-22T08:49:51.933Z,174.38
2019-01-22T08:50:52.621Z,180
2019-01-22T08:51:53.049Z,180
2019-01-22T08:52:54.466Z,191.25
2019-01-22T08:53:54.982Z,196.88
2019-01-22T08:54:55.672Z,208.13
2019-01-22T08:55:56.078Z,219.38
2019-01-22T08:56:57.221Z,230.63
2019-01-22T08:57:58.190Z,247.5
2019-01-22T08:58:57.886Z,258.75
2019-01-22T08:59:58.020Z,264.38
2019-01-22T09:01:01.211Z,275.63
2019-01-22T09:02:00.623Z,292.5
2019-01-22T09:03:01.321Z,309.38
2019-01-22T09:04:02.292Z,326.25
2019-01-22T09:05:03.272Z,343.13
2019-01-22T09:06:17.726Z,360
2019-01-22T09:07:16.425Z,360
2019-01-22T09:08:16.847Z,343.13
2019-01-22T09:09:17.263Z,337.5
2019-01-22T09:10:17.960Z,320.63
2019-01-22T09:11:18.654Z,315
2019-01-22T09:12:18.791Z,292.5
2019-01-22T09:13:19.758Z,275.63
2019-01-22T09:14:20.778Z,270
2019-01-22T09:15:25.123Z,258.75
2019-01-22T09:15:38.529Z,253.13
2019-01-22T09:15:49.349Z,253.13
2019-01-22T09:16:46.854Z,253.13
2019-01-22T09:17:46.264Z,253.13
2019-01-22T09:18:46.396Z,264.38
2019-01-22T09:19:46.819Z,286.88
2019-01-22T09:20:51.621Z,303.75
2019-01-22T09:21:01.963Z,309.38
2019-01-22T09:21:59.852Z,331.88
2019-01-22T09:23:01.097Z,348.75
2019-01-22T09:24:03.744Z,365.63
2019-01-22T09:25:02.714Z,376.88
2019-01-22T09:26:03.678Z,376.88
2019-01-22T09:27:04.368Z,371.25
2019-01-22T09:28:04.500Z,376.88
2019-01-22T09:29:05.913Z,393.75
2019-01-22T09:30:06.610Z,421.88
2019-01-22T09:31:07.018Z,461.25
2019-01-22T09:32:08.133Z,483.75
2019-01-22T09:33:08.548Z,506.25
2019-01-22T09:34:09.521Z,545.63
2019-01-22T09:35:12.452Z,613.13
2019-01-22T09:36:13.867Z,630
2019-01-22T09:37:21.998Z,641.25
2019-01-22T09:37:28.251Z,641.25
2019-01-22T09:38:29.688Z,663.75
2019-01-22T09:39:30.104Z,736.88
2019-01-22T09:40:31.073Z,787.5
2019-01-22T09:41:31.490Z,911.25
2019-01-22T09:42:33.180Z,815.63
2019-01-22T09:43:33.591Z,922.5
2019-01-22T09:44:34.327Z,995.63
2019-01-22T09:45:34.745Z,900
2019-01-22T09:46:40.730Z,973.13
2019-01-22T09:46:50.379Z,939.38
2019-01-22T09:47:48.224Z,905.63
2019-01-22T09:48:49.398Z,1001.25
2019-01-22T09:49:49.814Z,995.63
2019-01-22T09:50:50.957Z,855
2019-01-22T09:51:52.651Z,967.5
2019-01-22T09:52:52.785Z,866.25
2019-01-22T09:53:54.477Z,911.25
2019-01-22T09:54:54.893Z,911.25
2019-01-22T09:56:06.492Z,945
2019-01-22T09:57:07.324Z,1226.25
2019-01-22T09:58:07.464Z,1417.5
2019-01-22T09:59:09.154Z,1378.13
2019-01-22T10:00:09.291Z,1321.88
2019-01-22T10:01:10.263Z,1282.5
2019-01-22T10:02:10.697Z,1119.38
2019-01-22T10:03:29.744Z,1164.38
2019-01-22T10:03:42.609Z,1186.88
2019-01-22T10:03:50.995Z,1198.13
2019-01-22T10:04:48.256Z,1220.63
2019-01-22T10:05:49.512Z,1338.75
2019-01-22T10:06:48.925Z,1321.88
2019-01-22T10:07:50.347Z,1350
2019-01-22T10:08:50.767Z,1631.25
2019-01-22T10:09:52.186Z,1676.25
2019-01-22T10:10:52.693Z,1507.5
2019-01-22T10:11:53.723Z,1721.25
2019-01-22T10:12:54.426Z,1614.38
2019-01-22T10:13:54.841Z,1648.13
2019-01-22T10:14:55.958Z,1462.5
2019-01-22T10:15:56.927Z,1136.25
2019-01-22T10:16:57.623Z,1366.88
2019-01-22T10:17:58.041Z,1743.75
2019-01-22T10:18:59.478Z,1490.63
2019-01-22T10:20:04.347Z,1485
2019-01-22T10:20:16.328Z,1535.63
2019-01-22T10:21:13.830Z,1524.38
2019-01-22T10:22:14.246Z,1198.13
2019-01-22T10:23:16.177Z,1265.63
2019-01-22T10:24:18.578Z,1389.38
2019-01-22T10:25:19.034Z,1693.13
2019-01-22T10:26:23.158Z,1805.63
2019-01-22T10:27:21.134Z,1974.38
2019-01-22T10:28:21.828Z,2148.75
2019-01-22T10:29:21.983Z,2272.5
2019-01-22T10:30:25.175Z,2458.13
2019-01-22T10:31:30.894Z,2806.88
2019-01-22T10:31:39.263Z,2818.13
2019-01-22T10:32:55.539Z,3003.75
2019-01-22T10:33:08.043Z,3009.38
2019-01-22T10:33:19.282Z,3015
2019-01-22T10:34:16.639Z,2716.88
2019-01-22T10:35:16.342Z,2255.63
2019-01-22T10:36:16.763Z,2109.38
2019-01-22T10:37:17.181Z,2115
2019-01-22T10:38:17.900Z,2356.88
2019-01-22T10:39:20.484Z,2761.88
2019-01-22T10:40:33.795Z,3048.75
2019-01-22T10:41:33.209Z,3133.13
2019-01-22T10:42:35.182Z,2896.88
2019-01-22T10:43:35.603Z,2851.88
2019-01-22T10:44:41.983Z,2880
2019-01-22T10:44:53.260Z,2925
2019-01-22T10:45:49.609Z,2829.38
2019-01-22T10:46:50.027Z,2773.13
2019-01-22T10:47:56.013Z,2891.25
2019-01-22T10:48:07.242Z,2840.63
2019-01-22T10:49:03.123Z,2795.63
2019-01-22T10:50:03.849Z,2790
2019-01-22T10:51:04.545Z,2610
2019-01-22T10:52:18.996Z,2643.75
2019-01-22T10:53:17.744Z,2441.25
2019-01-22T10:54:21.411Z,2199.38
2019-01-22T10:55:20.134Z,2115
2019-01-22T10:56:22.819Z,2413.13
2019-01-22T10:57:21.529Z,2373.75
2019-01-22T10:58:22.649Z,2407.5
2019-01-22T10:59:23.473Z,2610
2019-01-22T11:00:24.176Z,2598.75
2019-01-22T11:01:27.690Z,2576.25
2019-01-22T11:02:25.026Z,2896.88
2019-01-22T11:03:25.898Z,2851.88
2019-01-22T11:04:26.043Z,2683.13
2019-01-22T11:05:27.737Z,2896.88
2019-01-22T11:06:28.435Z,3099.38
2019-01-22T11:07:28.872Z,2981.25
2019-01-22T11:08:29.295Z,3037.5
2019-01-22T11:09:29.440Z,3093.75
2019-01-22T11:10:30.136Z,2840.63
2019-01-22T11:11:32.042Z,2711.25
2019-01-22T11:12:31.584Z,2829.38
2019-01-22T11:13:33.228Z,2823.75
2019-01-22T11:14:33.192Z,2705.63
2019-01-22T11:15:33.894Z,2587.5
2019-01-22T11:16:35.158Z,2486.25
2019-01-22T11:17:35.857Z,1923.75
2019-01-22T11:18:36.365Z,1451.25
2019-01-22T11:19:37.060Z,1681.88
2019-01-22T11:20:42.014Z,2216.25
2019-01-22T11:20:52.975Z,2328.75
2019-01-22T11:21:50.118Z,2576.25
2019-01-22T11:22:50.833Z,2452.5
2019-01-22T11:23:52.447Z,2115
2019-01-22T11:24:55.245Z,2430
2019-01-22T11:25:56.237Z,2998.13
2019-01-22T11:26:57.222Z,2863.13
2019-01-22T11:27:58.030Z,2311.88
2019-01-22T11:28:58.450Z,1963.13
2019-01-22T11:29:58.868Z,2508.75
2019-01-22T11:30:59.588Z,2092.5
2019-01-22T11:32:00.985Z,1800
2019-01-22T11:33:02.237Z,2340
2019-01-22T11:34:02.497Z,2728.13
2019-01-22T11:35:03.244Z,2930.63
2019-01-22T11:36:03.909Z,2379.38
2019-01-22T11:37:04.611Z,1473.75
2019-01-22T11:38:12.236Z,1912.5
2019-01-22T11:38:18.228Z,2098.13
2019-01-22T11:39:20.672Z,2278.13
2019-01-22T11:40:19.709Z,2109.38
2019-01-22T11:41:20.406Z,2295
2019-01-22T11:42:20.545Z,1743.75
2019-01-22T11:43:36.554Z,748.13
2019-01-22T11:44:35.134Z,1417.5
2019-01-22T11:45:35.596Z,1783.13
2019-01-22T11:46:36.405Z,956.25
2019-01-22T11:47:37.439Z,742.5
2019-01-22T11:48:38.174Z,877.5
2019-01-22T11:49:38.874Z,1226.25
2019-01-22T11:50:39.851Z,1946.25
2019-01-22T11:51:40.461Z,1524.38
2019-01-22T11:52:40.735Z,1220.63
2019-01-22T11:53:41.194Z,1136.25
2019-01-22T11:54:41.893Z,680.63
2019-01-22T11:55:43.091Z,1113.75
2019-01-22T11:56:43.270Z,1653.75
2019-01-22T11:57:45.988Z,1996.88
2019-01-22T11:58:44.817Z,2278.13
2019-01-22T11:59:46.699Z,1929.38
2019-01-22T12:00:46.119Z,2002.5
2019-01-22T12:01:49.613Z,2255.63
2019-01-22T12:02:47.472Z,1974.38
2019-01-22T12:03:50.782Z,1788.75
2019-01-22T12:04:50.068Z,1777.5
2019-01-22T12:05:55.322Z,1265.63
2019-01-22T12:06:51.297Z,1732.5
2019-01-22T12:07:51.730Z,1715.63
2019-01-22T12:08:52.151Z,1383.75
2019-01-22T12:09:52.297Z,1496.25
2019-01-22T12:10:54.027Z,2019.38
2019-01-22T12:11:54.451Z,2739.38
2019-01-22T12:12:54.594Z,2778.75
2019-01-22T12:14:09.245Z,2407.5
2019-01-22T12:15:08.369Z,1299.38
2019-01-22T12:16:09.082Z,1321.88
2019-01-22T12:17:09.506Z,2390.63
2019-01-22T12:18:10.197Z,3099.38
2019-01-22T12:19:10.352Z,3065.63
2019-01-22T12:20:12.122Z,2829.38
2019-01-22T12:21:30.040Z,2424.38
2019-01-22T12:22:27.472Z,2716.88
2019-01-22T12:23:28.159Z,2919.38
2019-01-22T12:24:28.336Z,1833.75
2019-01-22T12:25:29.854Z,1057.5
2019-01-22T12:26:30.589Z,1631.25
2019-01-22T12:27:31.118Z,2441.25
2019-01-22T12:28:31.567Z,2711.25
2019-01-22T12:29:32.558Z,2491.88
2019-01-22T12:30:33.820Z,2553.75
2019-01-22T12:31:33.257Z,2638.13
2019-01-22T12:32:34.134Z,2610
2019-01-22T12:33:34.631Z,2660.63
2019-01-22T12:34:35.439Z,2379.38
2019-01-22T12:35:36.426Z,2047.5
2019-01-22T12:36:39.710Z,1912.5
2019-01-22T12:37:38.983Z,1963.13
2019-01-22T12:38:38.395Z,2064.38
2019-01-22T12:39:39.814Z,1940.63
2019-01-22T12:40:39.958Z,1839.38
2019-01-22T12:41:41.097Z,1659.38
2019-01-22T12:42:41.891Z,1704.38
2019-01-22T12:43:43.747Z,2064.38
2019-01-22T12:44:46.367Z,2036.25
2019-01-22T12:45:44.331Z,1591.88
2019-01-22T12:46:45.030Z,1580.63
2019-01-22T12:47:45.189Z,1518.75
2019-01-22T12:48:46.332Z,1440
2019-01-22T12:49:47.750Z,1670.63
2019-01-22T12:50:48.167Z,1479.38
2019-01-22T12:51:49.898Z,1293.75
2019-01-22T12:52:50.638Z,1181.25
2019-01-22T12:53:51.099Z,1260
2019-01-22T12:54:52.861Z,1552.5
2019-01-22T12:55:53.317Z,1451.25
2019-01-22T12:56:53.727Z,1473.75
2019-01-22T12:57:54.597Z,2176.88
2019-01-22T12:58:54.603Z,2266.88
2019-01-22T12:59:57.445Z,1878.75
2019-01-22T13:00:56.867Z,1575
2019-01-22T13:01:57.847Z,1535.63
2019-01-22T13:02:58.595Z,1558.13
2019-01-22T13:03:58.008Z,1378.13
2019-01-22T13:04:59.709Z,1327.5
2019-01-22T13:06:00.178Z,1406.25
2019-01-22T13:07:01.591Z,1417.5
2019-01-22T13:08:02.072Z,1462.5
2019-01-22T13:09:02.802Z,1012.5
2019-01-22T13:10:03.503Z,776.25
2019-01-22T13:11:04.205Z,832.5
2019-01-22T13:12:05.210Z,1096.88
2019-01-22T13:13:05.838Z,1395
2019-01-22T13:14:05.536Z,1597.5
2019-01-22T13:15:06.950Z,1681.88
2019-01-22T13:16:08.371Z,1575
2019-01-22T13:17:09.809Z,1620
2019-01-22T13:18:14.021Z,1833.75
2019-01-22T13:19:14.263Z,1468.13
2019-01-22T13:20:13.242Z,1350
2019-01-22T13:21:14.943Z,1625.63
2019-01-22T13:22:14.864Z,1366.88
2019-01-22T13:23:21.814Z,1659.38
2019-01-22T13:23:30.287Z,1659.38
2019-01-22T13:24:32.577Z,1698.75
2019-01-22T13:25:30.273Z,1153.13